createdAt,value
2018-07-15T00:01:24.813Z,97014.27
2018-07-15T00:03:51.967Z,97006.40
2018-07-15T00:06:19.103Z,97008.83
2018-07-15T00:08:46.320Z,97006.04
2018-07-15T00:11:13.500Z,97005.78
2018-07-15T00:13:40.595Z,96999.16
2018-07-15T00:16:07.800Z,97005.08
2018-07-15T00:18:34.931Z,97002.67
2018-07-15T00:21:02.399Z,97004.84
2018-07-15T00:23:29.539Z,97002.25
2018-07-15T00:25:56.743Z,96991.36
2018-07-15T00:28:23.868Z,96997.17
2018-07-15T00:30:51.010Z,96989.02
2018-07-15T00:33:18.270Z,96992.84
2018-07-15T00:35:45.407Z,96987.62
2018-07-15T00:38:12.549Z,96989.54
2018-07-15T00:40:39.724Z,96993.64
2018-07-15T00:43:06.929Z,96991.78
2018-07-15T00:45:34.061Z,96987.47
2018-07-15T00:48:01.227Z,96993.38
2018-07-15T00:50:28.376Z,96994.52
2018-07-15T00:52:55.547Z,96989.67
2018-07-15T00:55:22.752Z,96982.69
2018-07-15T00:57:49.834Z,96987.38
2018-07-15T01:01:21.306Z,96989.67
2018-07-15T01:03:48.432Z,96992.97
2018-07-15T01:06:15.568Z,96995.78
2018-07-15T01:08:42.709Z,96995.75
2018-07-15T01:11:16.644Z,96992.49
2018-07-15T01:13:43.792Z,96990.47
2018-07-15T01:16:10.936Z,96989.27
2018-07-15T01:18:38.064Z,96984.17
2018-07-15T01:21:05.213Z,96984.06
2018-07-15T01:23:32.335Z,96978.81
2018-07-15T01:25:59.508Z,96978.58
2018-07-15T01:28:26.680Z,96973.83
2018-07-15T01:30:53.780Z,96973.18
2018-07-15T01:33:20.917Z,96964.14
2018-07-15T01:35:48.009Z,96970.81
2018-07-15T01:38:15.124Z,96972.47
2018-07-15T01:40:42.297Z,96978.64
2018-07-15T01:43:09.431Z,96974.70
2018-07-15T01:45:36.632Z,96976.27
2018-07-15T01:48:03.828Z,96971.97
2018-07-15T01:50:31.028Z,96975.39
2018-07-15T01:52:58.181Z,96973.83
2018-07-15T01:55:25.357Z,96968.63
2018-07-15T01:57:52.440Z,96968.12
2018-07-15T02:00:19.572Z,96969.39
2018-07-15T02:02:46.760Z,96970.52
2018-07-15T02:05:13.994Z,96970.16
2018-07-15T02:07:41.129Z,96963.89
2018-07-15T02:10:08.274Z,96960.83
2018-07-15T02:12:35.393Z,96962.42
2018-07-15T02:15:02.585Z,96955.38
2018-07-15T02:17:29.739Z,96956.54
2018-07-15T02:19:56.932Z,96959.59
2018-07-15T02:22:24.055Z,96955.39
2018-07-15T02:24:51.375Z,96962.50
2018-07-15T02:27:18.528Z,96962.66
2018-07-15T02:29:45.703Z,96955.98
2018-07-15T02:32:12.881Z,96952.37
2018-07-15T02:34:40.100Z,96957.92
2018-07-15T02:37:07.317Z,96957.23
2018-07-15T02:39:34.464Z,96947.23
2018-07-15T02:42:01.628Z,96949.28
2018-07-15T02:44:28.757Z,96948.94
2018-07-15T02:46:55.852Z,96949.55
2018-07-15T02:49:22.968Z,96951.40
2018-07-15T02:51:50.098Z,96951.31
2018-07-15T02:54:17.244Z,96953.59
2018-07-15T02:56:44.406Z,96954.96
2018-07-15T02:59:11.553Z,96951.58
2018-07-15T03:01:38.652Z,96947.70
2018-07-15T03:04:05.793Z,96949.73
2018-07-15T03:06:32.876Z,96946.46
2018-07-15T03:09:00.048Z,96945.30
2018-07-15T03:11:27.182Z,96947.17
2018-07-15T03:13:54.308Z,96944.77
2018-07-15T03:16:21.574Z,96944.95
2018-07-15T03:18:48.666Z,96941.30
2018-07-15T03:21:15.766Z,96943.56
2018-07-15T03:23:42.896Z,96940.22
2018-07-15T03:26:10.012Z,96936.46
2018-07-15T03:28:37.131Z,96932.94
2018-07-15T03:31:04.360Z,96935.32
2018-07-15T03:33:31.524Z,96935.14
2018-07-15T03:35:58.684Z,96939.15
2018-07-15T03:38:25.777Z,96935.69
2018-07-15T03:40:52.877Z,96937.88
2018-07-15T03:43:20.063Z,96939.78
2018-07-15T03:45:47.240Z,96936.53
2018-07-15T03:48:14.360Z,96932.80
2018-07-15T03:50:41.480Z,96937.30
2018-07-15T03:53:08.617Z,96934.82
2018-07-15T03:55:35.731Z,96940.33
2018-07-15T03:58:02.873Z,96948.55
2018-07-15T04:00:30.043Z,96945.53
2018-07-15T04:02:57.169Z,96939.87
2018-07-15T04:05:24.301Z,96938.26
2018-07-15T04:07:51.405Z,96943.28
2018-07-15T04:10:18.527Z,96944.70
2018-07-15T04:12:45.672Z,96943.94
2018-07-15T04:15:12.851Z,96937.34
2018-07-15T04:17:39.969Z,96941.98
2018-07-15T04:20:07.151Z,96937.63
2018-07-15T04:22:34.285Z,96945.20
2018-07-15T04:25:01.437Z,96943.03
2018-07-15T04:27:28.541Z,96943.08
2018-07-15T04:29:55.757Z,96944.86
2018-07-15T04:32:22.905Z,96941.98
2018-07-15T04:34:50.037Z,96943.69
2018-07-15T04:37:18.123Z,96938.09
2018-07-15T04:39:45.225Z,96935.30
2018-07-15T04:42:12.455Z,96932.77
2018-07-15T04:44:39.582Z,96929.69
2018-07-15T04:47:06.702Z,96932.75
2018-07-15T04:49:33.876Z,96926.54
2018-07-15T04:52:01.016Z,96925.77
2018-07-15T04:54:28.141Z,96928.16
2018-07-15T04:56:55.228Z,96927.91
2018-07-15T04:59:22.394Z,96930.68
2018-07-15T05:01:49.496Z,96933.70
2018-07-15T05:04:16.688Z,96928.69
2018-07-15T05:06:44.228Z,96926.34
2018-07-15T05:09:11.415Z,96934.80
2018-07-15T05:11:40.671Z,96935.22
2018-07-15T05:14:08.112Z,96930.25
2018-07-15T05:16:35.579Z,96928.77
2018-07-15T05:19:02.739Z,96933.13
2018-07-15T05:21:29.954Z,96931.33
2018-07-15T05:23:57.093Z,96939.91
2018-07-15T05:26:24.222Z,96936.47
2018-07-15T05:28:51.404Z,96935.33
2018-07-15T05:31:18.541Z,96937.34
2018-07-15T05:33:45.707Z,96931.53
2018-07-15T05:36:12.889Z,96929.10
2018-07-15T05:38:40.032Z,96925.72
2018-07-15T05:42:26.918Z,96926.32
2018-07-15T05:44:54.043Z,96928.47
2018-07-15T05:47:21.180Z,96931.20
2018-07-15T05:49:48.389Z,96931.09
2018-07-15T05:52:15.534Z,96926.34
2018-07-15T05:54:42.695Z,96930.49
2018-07-15T05:57:09.839Z,96932.30
2018-07-15T05:59:37.043Z,96940.38
2018-07-15T06:02:04.204Z,96934.29
2018-07-15T06:04:31.368Z,96937.20
2018-07-15T06:06:58.529Z,96942.81
2018-07-15T06:09:25.632Z,96939.47
2018-07-15T06:11:52.812Z,96938.64
2018-07-15T06:14:19.944Z,96945.85
2018-07-15T06:16:47.104Z,96950.16
2018-07-15T06:19:14.264Z,96953.57
2018-07-15T06:21:41.452Z,96945.42
2018-07-15T06:24:08.568Z,96942.59
2018-07-15T06:26:35.677Z,96941.62
2018-07-15T06:29:02.828Z,96945.17
2018-07-15T06:31:29.970Z,96940.97
2018-07-15T06:33:57.159Z,96942.72
2018-07-15T06:36:24.309Z,96945.60
2018-07-15T06:38:51.465Z,96942.34
2018-07-15T06:41:18.608Z,96937.52
2018-07-15T06:43:45.768Z,96940.55
2018-07-15T06:46:12.931Z,96941.70
2018-07-15T06:48:40.101Z,96938.46
2018-07-15T06:51:07.472Z,96941.52
2018-07-15T06:53:34.648Z,96948.03
2018-07-15T06:56:02.619Z,96943.73
2018-07-15T06:58:29.627Z,96943.31
2018-07-15T07:00:56.811Z,96936.94
2018-07-15T07:03:24.401Z,96941.02
2018-07-15T07:05:51.577Z,96935.05
2018-07-15T07:08:18.679Z,96937.66
2018-07-15T07:10:45.853Z,96941.61
2018-07-15T07:13:13.005Z,96941.39
2018-07-15T07:15:40.168Z,96936.45
2018-07-15T07:18:07.353Z,96935.14
2018-07-15T07:20:34.496Z,96934.08
2018-07-15T07:23:01.656Z,96934.91
2018-07-15T07:25:28.795Z,96932.16
2018-07-15T07:27:55.890Z,96938.19
2018-07-15T07:30:23.022Z,96940.25
2018-07-15T07:32:50.224Z,96933.52
2018-07-15T07:35:17.467Z,96932.89
2018-07-15T07:37:44.652Z,96937.58
2018-07-15T07:40:11.804Z,96937.27
2018-07-15T07:42:38.932Z,96936.41
2018-07-15T07:45:06.092Z,96928.42
2018-07-15T07:47:33.279Z,96928.19
2018-07-15T07:50:00.428Z,96924.53
2018-07-15T07:52:27.545Z,96929.70
2018-07-15T07:54:54.685Z,96923.23
2018-07-15T07:57:21.916Z,96927.53
2018-07-15T07:59:49.061Z,96924.27
2018-07-15T08:02:16.184Z,96928.40
2018-07-15T08:04:43.352Z,96935.63
2018-07-15T08:07:10.464Z,96929.12
2018-07-15T08:09:37.651Z,96930.14
2018-07-15T08:12:04.820Z,96925.47
2018-07-15T08:14:32.066Z,96924.56
2018-07-15T08:16:59.217Z,96925.55
2018-07-15T08:19:26.391Z,96931.86
2018-07-15T08:21:53.768Z,96924.50
2018-07-15T08:24:20.935Z,96924.70
2018-07-15T08:26:48.088Z,96929.16
2018-07-15T08:29:15.256Z,96926.75
2018-07-15T08:31:42.375Z,96925.48
2018-07-15T08:34:09.513Z,96923.68
2018-07-15T08:36:36.628Z,96922.11
2018-07-15T08:39:05.612Z,96915.14
2018-07-15T08:41:32.749Z,96915.09
2018-07-15T08:43:59.896Z,96918.66
2018-07-15T08:46:27.078Z,96917.05
2018-07-15T08:48:54.254Z,96916.70
2018-07-15T08:51:21.400Z,96913.29
2018-07-15T08:53:48.562Z,96914.41
2018-07-15T08:56:15.740Z,96913.39
2018-07-15T08:58:42.876Z,96915.75
2018-07-15T09:01:10.076Z,96911.36
2018-07-15T09:03:37.283Z,96914.80
2018-07-15T09:06:04.414Z,96914.96
2018-07-15T09:08:31.568Z,96908.13
2018-07-15T09:10:58.903Z,96910.33
2018-07-15T09:13:26.161Z,96909.73
2018-07-15T09:15:53.288Z,96909.48
2018-07-15T09:18:20.454Z,96910.14
2018-07-15T09:20:48.513Z,96908.50
2018-07-15T09:23:15.658Z,96905.95
2018-07-15T09:25:42.817Z,96908.52
2018-07-15T09:28:09.994Z,96905.06
2018-07-15T09:30:37.141Z,96898.36
2018-07-15T09:33:04.721Z,96891.86
2018-07-15T09:35:31.908Z,96891.93
2018-07-15T09:37:58.997Z,96892.05
2018-07-15T09:40:26.179Z,96888.59
2018-07-15T09:42:53.357Z,96882.16
2018-07-15T09:45:20.452Z,96878.76
2018-07-15T09:47:47.608Z,96873.05
2018-07-15T09:50:14.725Z,96867.06
2018-07-15T09:52:41.913Z,96865.45
2018-07-15T09:55:09.504Z,96857.46
2018-07-15T09:57:36.775Z,96856.59
2018-07-15T10:00:04.717Z,96848.21
2018-07-15T10:02:31.858Z,96855.06
2018-07-15T10:04:59.044Z,96851.64
2018-07-15T10:07:26.192Z,96852.33
2018-07-15T10:09:53.412Z,96846.69
2018-07-15T10:12:20.599Z,96847.75
2018-07-15T10:14:47.773Z,96838.66
2018-07-15T10:17:14.961Z,96838.78
2018-07-15T10:19:42.109Z,96827.09
2018-07-15T10:22:09.224Z,96838.25
2018-07-15T10:24:36.460Z,96824.49
2018-07-15T10:27:03.751Z,96823.73
2018-07-15T10:29:30.959Z,96826.59
2018-07-15T10:31:58.161Z,96821.98
2018-07-15T10:34:25.717Z,96817.31
2018-07-15T10:36:52.832Z,96826.20
2018-07-15T10:39:20.100Z,96827.61
2018-07-15T10:41:47.521Z,96828.41
2018-07-15T10:44:14.672Z,96827.32
2018-07-15T10:46:41.891Z,96822.33
2018-07-15T10:49:09.070Z,96817.84
2018-07-15T10:51:36.230Z,96819.41
2018-07-15T10:54:03.395Z,96815.42
2018-07-15T10:56:30.554Z,96808.42
2018-07-15T10:58:57.652Z,96801.39
2018-07-15T11:01:24.841Z,96792.42
2018-07-15T11:03:51.953Z,96791.97
2018-07-15T11:06:19.133Z,96794.11
2018-07-15T11:08:46.220Z,96800.18
2018-07-15T11:11:13.388Z,96791.00
2018-07-15T11:13:40.585Z,96792.91
2018-07-15T11:16:07.718Z,96790.07
2018-07-15T11:18:34.833Z,96789.91
2018-07-15T11:21:02.041Z,96782.40
2018-07-15T11:23:29.195Z,96784.13
2018-07-15T11:25:56.361Z,96782.63
2018-07-15T11:28:23.568Z,96782.67
2018-07-15T11:30:50.919Z,96773.20
2018-07-15T11:33:18.099Z,96777.84
2018-07-15T11:35:45.252Z,96778.52
2018-07-15T11:38:12.379Z,96778.83
2018-07-15T11:40:39.488Z,96773.98
2018-07-15T11:43:06.632Z,96768.91
2018-07-15T11:45:33.789Z,96772.62
2018-07-15T11:48:00.936Z,96766.56
2018-07-15T11:50:28.059Z,96770.85
2018-07-15T11:52:55.237Z,96769.87
2018-07-15T11:55:22.361Z,96761.99
2018-07-15T11:57:49.493Z,96769.44
2018-07-15T12:00:16.663Z,96762.98
2018-07-15T12:02:43.813Z,96776.80
2018-07-15T12:05:10.992Z,96782.20
2018-07-15T12:07:38.140Z,96766.64
2018-07-15T12:10:05.710Z,96771.41
2018-07-15T12:12:32.899Z,96776.13
2018-07-15T12:15:00.079Z,96773.05
2018-07-15T12:17:27.213Z,96777.57
2018-07-15T12:19:54.396Z,96772.94
2018-07-15T12:22:21.542Z,96772.28
2018-07-15T12:24:48.682Z,96779.86
2018-07-15T12:27:15.854Z,96777.99
2018-07-15T12:29:43.025Z,96784.19
2018-07-15T12:32:10.125Z,96786.09
2018-07-15T12:34:37.332Z,96780.95
2018-07-15T12:37:04.456Z,96779.23
2018-07-15T12:39:31.601Z,96769.56
2018-07-15T12:41:58.706Z,96775.20
2018-07-15T12:44:25.872Z,96768.00
2018-07-15T12:46:53.036Z,96764.58
2018-07-15T12:49:20.165Z,96758.74
2018-07-15T12:51:47.316Z,96759.31
2018-07-15T12:54:14.497Z,96762.16
2018-07-15T12:56:41.696Z,96752.16
2018-07-15T12:59:08.885Z,96751.16
2018-07-15T13:01:36.103Z,96742.98
2018-07-15T13:04:03.272Z,96748.57
2018-07-15T13:06:30.447Z,96742.05
2018-07-15T13:08:57.617Z,96740.31
2018-07-15T13:11:24.903Z,96738.27
2018-07-15T13:13:52.085Z,96742.30
2018-07-15T13:16:19.315Z,96731.37
2018-07-15T13:18:46.448Z,96725.08
2018-07-15T13:21:13.680Z,96720.94
2018-07-15T13:23:40.844Z,96716.80
2018-07-15T13:26:08.059Z,96712.78
2018-07-15T13:28:35.320Z,96708.09
2018-07-15T13:31:02.493Z,96707.16
2018-07-15T13:33:29.675Z,96707.47
2018-07-15T13:35:56.962Z,96706.95
2018-07-15T13:38:24.109Z,96712.73
2018-07-15T13:40:51.274Z,96720.70
2018-07-15T13:43:18.428Z,96714.16
2018-07-15T13:45:45.668Z,96726.16
2018-07-15T13:48:12.855Z,96732.52
2018-07-15T13:50:40.065Z,96745.46
2018-07-15T13:53:07.275Z,96753.36
2018-07-15T13:55:34.465Z,96752.45
2018-07-15T13:58:01.629Z,96759.31
2018-07-15T14:00:28.832Z,96770.79
2018-07-15T14:02:56.044Z,96767.08
2018-07-15T14:05:23.201Z,96769.38
2018-07-15T14:07:50.389Z,96780.61
2018-07-15T14:10:17.627Z,96784.44
2018-07-15T14:12:44.833Z,96787.15
2018-07-15T14:15:12.080Z,96790.42
2018-07-15T14:17:39.225Z,96784.81
2018-07-15T14:20:06.581Z,96786.25
2018-07-15T14:22:33.759Z,96800.41
2018-07-15T14:25:00.956Z,96804.36
2018-07-15T14:27:28.120Z,96797.63
2018-07-15T14:29:55.285Z,96800.45
2018-07-15T14:32:22.491Z,96803.34
2018-07-15T14:34:49.665Z,96805.40
2018-07-15T14:37:16.848Z,96800.14
2018-07-15T14:39:44.030Z,96803.55
2018-07-15T14:42:11.252Z,96805.05
2018-07-15T14:44:39.177Z,96802.08
2018-07-15T14:47:06.368Z,96809.78
2018-07-15T14:49:33.744Z,96811.03
2018-07-15T14:52:04.512Z,96807.98
2018-07-15T14:54:31.784Z,96809.76
2018-07-15T14:56:58.926Z,96781.02
2018-07-15T14:59:26.053Z,96814.63
2018-07-15T15:01:54.076Z,96803.69
2018-07-15T15:04:21.188Z,96802.30
2018-07-15T15:06:48.496Z,96792.95
2018-07-15T15:09:15.624Z,96792.19
2018-07-15T15:11:43.140Z,96786.45
2018-07-15T15:14:10.434Z,96780.25
2018-07-15T15:16:37.609Z,96774.05
2018-07-15T15:19:04.828Z,96780.52
2018-07-15T15:21:32.285Z,96781.87
2018-07-15T15:23:59.420Z,96783.01
2018-07-15T15:26:26.645Z,96794.66
2018-07-15T15:28:53.872Z,96791.39
2018-07-15T15:31:21.027Z,96800.33
2018-07-15T15:33:48.205Z,96801.06
2018-07-15T15:36:15.351Z,96786.67
2018-07-15T15:38:42.503Z,96790.91
2018-07-15T15:41:09.637Z,96791.53
2018-07-15T15:43:36.811Z,96791.52
2018-07-15T15:46:04.036Z,96788.12
2018-07-15T15:48:31.523Z,96784.16
2018-07-15T15:50:58.650Z,96780.44
2018-07-15T15:53:25.774Z,96778.00
2018-07-15T15:55:53.010Z,96777.07
2018-07-15T15:58:20.137Z,96779.16
2018-07-15T16:00:47.313Z,96774.36
2018-07-15T16:03:14.505Z,96780.00
2018-07-15T16:05:41.645Z,96788.13
2018-07-15T16:08:08.815Z,96796.83
2018-07-15T16:10:36.023Z,96805.26
2018-07-15T16:13:03.262Z,96801.23
2018-07-15T16:15:30.456Z,96798.82
2018-07-15T16:17:57.685Z,96790.17
2018-07-15T16:20:24.918Z,96775.47
2018-07-15T16:22:52.376Z,96769.26
2018-07-15T16:25:19.563Z,96769.61
2018-07-15T16:27:46.771Z,96775.30
2018-07-15T16:30:14.038Z,96769.19
2018-07-15T16:32:41.381Z,96765.84
2018-07-15T16:35:08.543Z,96761.00
2018-07-15T16:37:35.681Z,96753.92
2018-07-15T16:40:02.997Z,96751.72
2018-07-15T16:42:30.197Z,96756.31
2018-07-15T16:44:58.522Z,96752.84
2018-07-15T16:47:25.875Z,96756.44
2018-07-15T16:49:53.069Z,96757.01
2018-07-15T16:52:20.191Z,96756.31
2018-07-15T16:54:47.379Z,96766.59
2018-07-15T16:57:14.581Z,96767.55
2018-07-15T16:59:41.741Z,96768.31
2018-07-15T17:02:08.984Z,96767.98
2018-07-15T17:04:36.170Z,96759.38
2018-07-15T17:07:03.643Z,96758.27
2018-07-15T17:09:30.867Z,96765.78
2018-07-15T17:11:58.048Z,96769.09
2018-07-15T17:14:25.201Z,96761.92
2018-07-15T17:16:52.400Z,96765.71
2018-07-15T17:19:19.582Z,96759.98
2018-07-15T17:21:46.784Z,96765.56
2018-07-15T17:24:14.102Z,96766.72
2018-07-15T17:26:41.327Z,96772.36
2018-07-15T17:29:08.509Z,96780.66
2018-07-15T17:31:35.728Z,96782.83
2018-07-15T17:34:02.908Z,96783.34
2018-07-15T17:36:30.071Z,96784.78
2018-07-15T17:38:57.259Z,96793.09
2018-07-15T17:41:24.475Z,96786.42
2018-07-15T17:43:51.701Z,96784.27
2018-07-15T17:46:18.920Z,96787.31
2018-07-15T17:48:46.183Z,96780.00
2018-07-15T17:51:13.396Z,96781.09
2018-07-15T17:53:40.540Z,96780.52
2018-07-15T17:56:07.736Z,96776.10
2018-07-15T17:58:35.064Z,96773.53
2018-07-15T18:01:02.194Z,96772.39
2018-07-15T18:03:29.423Z,96769.42
2018-07-15T18:05:56.648Z,96773.29
2018-07-15T18:08:23.840Z,96774.83
2018-07-15T18:10:51.009Z,96767.76
2018-07-15T18:13:18.206Z,96769.66
2018-07-15T18:15:45.389Z,96769.91
2018-07-15T18:18:12.524Z,96763.00
2018-07-15T18:20:40.036Z,96764.41
2018-07-15T18:23:07.281Z,96763.27
2018-07-15T18:25:34.477Z,96770.91
2018-07-15T18:28:01.662Z,96771.11
2018-07-15T18:30:28.831Z,96766.25
2018-07-15T18:32:56.017Z,96772.05
2018-07-15T18:35:23.181Z,96764.98
2018-07-15T18:37:50.480Z,96765.95
2018-07-15T18:40:17.626Z,96764.62
2018-07-15T18:42:44.792Z,96770.73
2018-07-15T18:45:11.953Z,96770.83
2018-07-15T18:47:39.182Z,96770.83
2018-07-15T18:50:06.571Z,96780.40
2018-07-15T18:52:33.807Z,96773.00
2018-07-15T18:55:00.998Z,96775.98
2018-07-15T18:57:28.196Z,96769.16
2018-07-15T18:59:55.417Z,96778.80
2018-07-15T19:02:22.604Z,96787.68
2018-07-15T19:04:49.753Z,96784.80
2018-07-15T19:07:16.904Z,96788.12
2018-07-15T19:09:44.324Z,96786.47
2018-07-15T19:12:11.528Z,96793.56
2018-07-15T19:14:38.655Z,96796.12
2018-07-15T19:19:39.804Z,96793.64
2018-07-15T19:22:06.932Z,96801.92
2018-07-15T19:24:34.180Z,96800.20
2018-07-15T19:27:01.340Z,96798.88
2018-07-15T19:29:28.563Z,96799.97
2018-07-15T19:31:55.782Z,96804.57
2018-07-15T19:34:23.013Z,96806.14
2018-07-15T19:36:50.218Z,96809.62
2018-07-15T19:39:17.420Z,96813.27
2018-07-15T19:41:44.635Z,96807.11
2018-07-15T19:44:11.731Z,96808.37
2018-07-15T19:46:38.908Z,96808.39
2018-07-15T19:49:06.041Z,96806.26
2018-07-15T19:51:33.181Z,96811.66
2018-07-15T19:54:00.342Z,96812.98
2018-07-15T19:56:27.504Z,96820.22
2018-07-15T19:58:54.643Z,96819.33
2018-07-15T20:01:21.831Z,96818.71
2018-07-15T20:03:48.901Z,96818.78
2018-07-15T20:06:16.069Z,96824.48
2018-07-15T20:08:43.203Z,96823.07
2018-07-15T20:11:10.425Z,96826.33
2018-07-15T20:13:37.584Z,96827.22
2018-07-15T20:16:04.830Z,96822.58
2018-07-15T20:18:32.032Z,96822.70
2018-07-15T20:20:59.309Z,96816.84
2018-07-15T20:23:26.417Z,96814.89
2018-07-15T20:25:53.542Z,96815.50
2018-07-15T20:28:20.725Z,96817.21
2018-07-15T20:30:47.873Z,96821.08
2018-07-15T20:33:15.009Z,96816.37
2018-07-15T20:35:42.129Z,96817.73
2018-07-15T20:38:09.256Z,96824.06
2018-07-15T20:40:36.445Z,96819.82
2018-07-15T20:43:03.659Z,96819.59
2018-07-15T20:45:30.859Z,96809.98
2018-07-15T20:47:58.037Z,96807.75
2018-07-15T20:50:25.231Z,96811.41
2018-07-15T20:52:52.680Z,96809.73
2018-07-15T20:55:19.801Z,96804.77
2018-07-15T20:57:46.956Z,96806.37
2018-07-15T21:00:14.133Z,96802.27
2018-07-15T21:02:41.307Z,96804.73
2018-07-15T21:05:08.407Z,96803.77
2018-07-15T21:07:35.505Z,96806.81
2018-07-15T21:10:03.006Z,96806.84
2018-07-15T21:12:30.148Z,96806.67
2018-07-15T21:14:57.272Z,96800.84
2018-07-15T21:17:24.428Z,96807.78
2018-07-15T21:19:51.579Z,96812.03
2018-07-15T21:22:18.711Z,96810.80
2018-07-15T21:24:45.810Z,96811.03
2018-07-15T21:27:12.931Z,96812.15
2018-07-15T21:29:40.082Z,96816.78
2018-07-15T21:32:07.226Z,96807.88
2018-07-15T21:34:34.469Z,96807.82
2018-07-15T21:37:01.609Z,96812.04
2018-07-15T21:39:28.744Z,96813.88
2018-07-15T21:41:55.884Z,96818.53
2018-07-15T21:44:23.145Z,96811.53
2018-07-15T21:46:50.199Z,96817.97
2018-07-15T21:49:17.312Z,96818.89
2018-07-15T21:51:44.420Z,96813.38
2018-07-15T21:54:11.564Z,96825.33
2018-07-15T21:56:45.396Z,96822.91
2018-07-15T21:59:12.524Z,96829.07
2018-07-15T22:01:41.719Z,96832.25
2018-07-15T22:04:09.599Z,96831.72
2018-07-15T22:06:48.288Z,96837.44
2018-07-15T22:09:27.712Z,96839.70
2018-07-15T22:11:54.988Z,96831.85
2018-07-15T22:14:22.137Z,96835.94
2018-07-15T22:16:49.321Z,96834.96
2018-07-15T22:19:16.504Z,96838.17
2018-07-15T22:21:43.681Z,96834.14
2018-07-15T22:24:10.789Z,96828.97
2018-07-15T22:26:37.960Z,96831.37
2018-07-15T22:29:05.132Z,96839.23
2018-07-15T22:31:32.261Z,96846.70
2018-07-15T22:33:59.408Z,96840.42
2018-07-15T22:36:26.575Z,96843.13
2018-07-15T22:38:53.694Z,96840.95
2018-07-15T22:41:20.869Z,96842.44
2018-07-15T22:43:47.940Z,96842.44
2018-07-15T22:46:15.104Z,96835.48
2018-07-15T22:48:42.244Z,96836.52
2018-07-15T22:51:09.392Z,96835.85
2018-07-15T22:53:36.603Z,96830.06
2018-07-15T22:56:03.823Z,96834.77
2018-07-15T22:58:31.000Z,96829.42
2018-07-15T23:00:58.160Z,96833.13
2018-07-15T23:03:25.282Z,96831.88
2018-07-15T23:06:03.822Z,96824.86
2018-07-15T23:08:31.869Z,96826.77
2018-07-15T23:10:59.026Z,96830.01
2018-07-15T23:13:26.143Z,96832.59
2018-07-15T23:15:53.308Z,96834.45
2018-07-15T23:18:20.815Z,96827.41
2018-07-15T23:20:48.633Z,96824.09
2018-07-15T23:23:16.122Z,96816.42
2018-07-15T23:25:43.274Z,96813.52
2018-07-15T23:28:11.445Z,96812.98
2018-07-15T23:30:39.382Z,96819.58
2018-07-15T23:33:06.987Z,96818.53
2018-07-15T23:35:34.194Z,96818.78
2018-07-15T23:38:01.342Z,96817.86
2018-07-15T23:40:28.492Z,96819.70
2018-07-15T23:42:56.399Z,96822.16
2018-07-15T23:45:24.449Z,96823.91
2018-07-15T23:47:51.848Z,96820.00
2018-07-15T23:50:18.992Z,96813.63
2018-07-15T23:52:46.155Z,96816.25
2018-07-15T23:55:13.312Z,96818.78
2018-07-15T23:57:40.448Z,96819.50
